createdAt,value
2019-04-22T00:01:19.608Z,54.64
2019-04-22T00:03:52.521Z,54.61
2019-04-22T00:06:40.627Z,54.69
2019-04-22T00:09:11.488Z,54.69
2019-04-22T00:11:40.184Z,54.73
2019-04-22T00:14:05.721Z,55.57
2019-04-22T00:16:46.939Z,56.02
2019-04-22T00:19:15.346Z,56.09
2019-04-22T00:21:41.931Z,55.65
2019-04-22T00:24:10.653Z,55.46
2019-04-22T00:26:44.211Z,55.46
2019-04-22T00:29:34.304Z,55.57
2019-04-22T00:31:32.930Z,55.69
2019-04-22T00:34:03.452Z,55.52
2019-04-22T00:36:40.196Z,55.95
2019-04-22T00:39:18.514Z,56.25
2019-04-22T00:41:43.966Z,56.11
2019-04-22T00:44:12.360Z,56.19
2019-04-22T00:46:43.197Z,57.20
2019-04-22T00:49:52.736Z,56.98
2019-04-22T00:51:44.720Z,56.47
2019-04-22T00:54:08.563Z,56.47
2019-04-22T00:56:35.617Z,56.70
2019-04-22T00:59:08.442Z,56.36
2019-04-22T01:01:39.503Z,56.46
2019-04-22T01:04:14.243Z,56.41
2019-04-22T01:06:41.406Z,56.61
2019-04-22T01:09:10.932Z,56.84
2019-04-22T01:14:06.541Z,57.25
2019-04-22T01:16:37.217Z,57.29
2019-04-22T01:19:07.126Z,57.39
2019-04-22T01:21:40.497Z,58.82
2019-04-22T01:24:05.861Z,58.12
2019-04-22T01:26:30.036Z,57.99
2019-04-22T01:28:58.898Z,58.02
2019-04-22T01:34:07.434Z,58.13
2019-04-22T01:36:41.759Z,57.83
2019-04-22T01:39:15.316Z,57.84
2019-04-22T01:41:55.030Z,57.90
2019-04-22T01:44:31.341Z,58.20
2019-04-22T01:46:50.217Z,58.24
2019-04-22T01:49:22.490Z,58.00
2019-04-22T01:59:12.851Z,58.96
2019-04-22T02:01:52.486Z,58.88
2019-04-22T02:04:29.845Z,58.89
2019-04-22T02:06:48.473Z,59.20
2019-04-22T02:09:24.044Z,59.12
2019-04-22T02:11:54.946Z,58.50
2019-04-22T02:14:21.976Z,59.13
2019-04-22T02:19:22.895Z,58.97
2019-04-22T02:21:51.656Z,59.46
2019-04-22T02:24:27.819Z,58.98
2019-04-22T02:29:26.709Z,58.92
2019-04-22T02:31:59.606Z,58.77
2019-04-22T02:34:36.925Z,59.32
2019-04-22T02:41:54.999Z,60.33
2019-04-22T02:44:46.763Z,59.96
2019-04-22T02:49:24.714Z,59.70
2019-04-22T02:52:09.455Z,60.23
2019-04-22T02:54:40.422Z,60.29
2019-04-22T02:56:48.729Z,60.78
2019-04-22T03:01:51.440Z,60.67
2019-04-22T03:04:24.274Z,60.45
2019-04-22T03:06:43.634Z,60.44
2019-04-22T03:12:11.962Z,60.83
2019-04-22T03:14:37.157Z,60.69
2019-04-22T03:17:06.120Z,60.84
2019-04-22T03:19:44.681Z,61.47
2019-04-22T03:22:00.527Z,62.13
2019-04-22T03:27:00.780Z,61.99
2019-04-22T03:33:09.329Z,62.41
2019-04-22T03:42:59.224Z,61.82
2019-04-22T03:48:02.762Z,62.16
2019-04-22T03:50:31.403Z,62.11
2019-04-22T03:55:36.398Z,62.62
2019-04-22T04:03:07.043Z,62.92
2019-04-22T04:13:08.366Z,62.09
2019-04-22T04:15:30.092Z,62.46
2019-04-22T04:25:48.437Z,64.12
2019-04-22T04:28:24.310Z,63.82
2019-04-22T04:33:11.226Z,63.23
2019-04-22T04:40:37.380Z,63.23
2019-04-22T04:42:58.659Z,63.79
2019-04-22T04:58:18.105Z,64.12
2019-04-22T05:03:13.689Z,63.85
2019-04-22T05:05:31.548Z,63.67
2019-04-22T05:10:48.030Z,64.74
2019-04-22T05:13:01.878Z,64.01
2019-04-22T05:15:35.059Z,63.61
2019-04-22T05:23:01.541Z,62.83
2019-04-22T05:28:06.867Z,62.17
2019-04-22T05:30:46.114Z,61.52
2019-04-22T05:33:26.313Z,60.84
2019-04-22T05:38:13.368Z,59.73
2019-04-22T05:40:28.217Z,59.38
2019-04-22T05:43:00.378Z,60.33
2019-04-22T05:45:31.377Z,61.08
2019-04-22T05:48:04.163Z,61.36
2019-04-22T05:50:26.924Z,61.14
2019-04-22T05:53:03.399Z,60.60
2019-04-22T05:55:40.635Z,60.79
2019-04-22T05:58:02.851Z,60.66
2019-04-22T06:03:06.997Z,58.99
2019-04-22T06:05:38.564Z,59.59
2019-04-22T06:08:04.061Z,58.88
2019-04-22T06:10:43.927Z,58.99
2019-04-22T06:13:00.790Z,58.82
2019-04-22T06:15:33.911Z,57.82
2019-04-22T06:18:16.209Z,58.26
2019-04-22T06:20:40.314Z,57.37
2019-04-22T06:23:12.421Z,57.71
2019-04-22T06:25:55.509Z,57.46
2019-04-22T06:28:20.427Z,57.46
2019-04-22T06:30:36.680Z,57.46
2019-04-22T06:33:09.423Z,57.94
2019-04-22T06:35:36.736Z,58.23
2019-04-22T06:38:32.979Z,58.88
2019-04-22T06:43:09.163Z,58.35
2019-04-22T06:45:35.344Z,58.65
2019-04-22T06:48:09.799Z,57.18
2019-04-22T06:50:43.367Z,56.43
2019-04-22T06:58:04.897Z,53.68
2019-04-22T07:05:46.458Z,53.42
2019-04-22T07:08:46.938Z,53.25
2019-04-22T07:10:47.675Z,52.83
2019-04-22T07:13:17.510Z,53.36
2019-04-22T07:15:50.540Z,53.93
2019-04-22T07:18:18.164Z,53.86
2019-04-22T07:20:51.101Z,53.24
2019-04-22T07:23:22.195Z,53.64
2019-04-22T07:25:47.968Z,52.58
2019-04-22T07:28:15.728Z,53.34
2019-04-22T07:30:46.079Z,53.26
2019-04-22T07:33:24.724Z,52.88
2019-04-22T07:35:57.549Z,51.10
2019-04-22T07:38:21.663Z,50.33
2019-04-22T07:48:42.778Z,48.53
2019-04-22T07:53:33.578Z,46.89
2019-04-22T07:58:42.097Z,48.40
2019-04-22T08:01:14.006Z,47.61
2019-04-22T08:06:20.717Z,48.09
2019-04-22T08:08:45.680Z,48.47
2019-04-22T08:11:29.877Z,48.76
2019-04-22T08:13:40.683Z,47.92
2019-04-22T08:16:33.509Z,47.84
2019-04-22T08:18:52.240Z,47.98
2019-04-22T08:23:56.874Z,48.06
2019-04-22T08:26:28.393Z,46.96
2019-04-22T08:28:57.921Z,44.34
2019-04-22T08:34:12.098Z,44.31
2019-04-22T08:36:41.050Z,43.75
2019-04-22T08:39:10.954Z,44.31
2019-04-22T08:49:10.121Z,43.61
2019-04-22T08:51:42.570Z,41.91
2019-04-22T08:54:16.412Z,41.43
2019-04-22T09:01:39.242Z,39.87
2019-04-22T09:04:22.819Z,39.28
2019-04-22T09:09:16.396Z,40.99
2019-04-22T09:11:48.270Z,40.53
2019-04-22T09:14:16.601Z,38.68
2019-04-22T09:16:44.764Z,39.07
2019-04-22T09:19:12.650Z,38.92
2019-04-22T09:21:45.626Z,40.34
2019-04-22T09:24:34.189Z,39.17
2019-04-22T09:29:22.471Z,38.95
2019-04-22T09:31:44.458Z,39.45
2019-04-22T09:34:18.589Z,38.48
2019-04-22T09:37:06.131Z,38.31
2019-04-22T09:39:16.583Z,38.58
2019-04-22T09:41:46.574Z,37.54
2019-04-22T09:44:08.135Z,37.19
2019-04-22T09:46:47.240Z,38.17
2019-04-22T09:49:23.327Z,38.06
2019-04-22T09:51:44.971Z,39.04
2019-04-22T09:56:55.073Z,36.03
2019-04-22T09:59:25.153Z,35.00
2019-04-22T10:02:08.042Z,34.65
2019-04-22T10:04:20.206Z,35.37
2019-04-22T10:06:45.532Z,34.95
2019-04-22T10:11:50.894Z,30.99
2019-04-22T10:14:28.870Z,30.47
2019-04-22T10:16:53.829Z,30.99
2019-04-22T10:19:23.264Z,29.63
2019-04-22T10:21:57.329Z,29.67
2019-04-22T10:24:19.063Z,30.74
2019-04-22T10:26:51.638Z,31.28
2019-04-22T10:29:24.816Z,32.27
2019-04-22T10:31:57.115Z,31.53
2019-04-22T10:34:11.539Z,30.17
2019-04-22T10:36:28.825Z,30.95
2019-04-22T10:39:00.158Z,30.77
2019-04-22T10:41:30.471Z,30.57
2019-04-22T10:43:59.358Z,30.52
2019-04-22T10:46:30.430Z,30.96
2019-04-22T10:49:00.007Z,31.45
2019-04-22T10:51:28.772Z,31.14
2019-04-22T10:53:59.709Z,30.82
2019-04-22T10:56:28.544Z,31.02
2019-04-22T10:58:58.530Z,31.39
2019-04-22T11:01:29.593Z,31.19
2019-04-22T11:03:59.608Z,30.63
2019-04-22T11:06:29.546Z,30.23
2019-04-22T11:09:01.771Z,31.09
2019-04-22T11:11:38.446Z,29.81
2019-04-22T11:14:00.020Z,29.99
2019-04-22T11:16:29.689Z,30.42
2019-04-22T11:18:59.306Z,29.82
2019-04-22T11:21:29.512Z,28.77
2019-04-22T11:23:58.695Z,28.63
2019-04-22T11:26:28.325Z,29.80
2019-04-22T11:28:59.400Z,28.19
2019-04-22T11:31:28.340Z,28.16
2019-04-22T11:33:58.631Z,29.72
2019-04-22T11:36:30.689Z,28.98
2019-04-22T11:39:02.410Z,29.72
2019-04-22T11:41:28.650Z,29.80
2019-04-22T11:43:59.160Z,28.17
2019-04-22T11:46:29.560Z,29.12
2019-04-22T11:49:00.151Z,28.84
2019-04-22T11:51:29.735Z,29.05
2019-04-22T11:53:58.862Z,28.22
2019-04-22T11:56:29.389Z,27.89
2019-04-22T11:58:58.544Z,28.16
2019-04-22T12:01:28.861Z,28.32
2019-04-22T12:03:59.843Z,28.98
2019-04-22T12:06:28.678Z,27.84
2019-04-22T12:08:59.612Z,28.12
2019-04-22T12:11:28.526Z,28.12
2019-04-22T12:14:00.189Z,27.89
2019-04-22T12:16:29.648Z,28.77
2019-04-22T12:18:59.057Z,28.17
2019-04-22T12:21:29.102Z,28.71
2019-04-22T12:23:59.281Z,27.77
2019-04-22T12:26:30.588Z,28.87
2019-04-22T12:28:59.416Z,28.55
2019-04-22T12:31:29.404Z,28.66
2019-04-22T12:33:59.398Z,28.39
2019-04-22T12:36:30.597Z,28.47
2019-04-22T12:38:59.730Z,28.72
2019-04-22T12:41:28.988Z,27.81
2019-04-22T12:43:59.110Z,27.95
2019-04-22T12:46:30.148Z,28.34
2019-04-22T12:49:00.266Z,26.78
2019-04-22T12:51:29.303Z,28.13
2019-04-22T12:53:59.403Z,28.13
2019-04-22T12:56:29.967Z,26.75
2019-04-22T12:58:59.472Z,26.27
2019-04-22T13:01:29.088Z,28.02
2019-04-22T13:04:05.796Z,27.17
2019-04-22T13:06:30.159Z,26.25
2019-04-22T13:09:00.266Z,25.96
2019-04-22T13:11:32.793Z,26.97
2019-04-22T13:14:00.813Z,26.62
2019-04-22T13:16:31.078Z,26.22
2019-04-22T13:19:05.095Z,25.67
2019-04-22T13:21:30.934Z,25.68
2019-04-22T13:23:59.692Z,24.23
2019-04-22T13:26:29.833Z,25.00
2019-04-22T13:29:00.944Z,24.48
2019-04-22T13:31:30.906Z,24.82
2019-04-22T13:34:03.539Z,25.63
2019-04-22T13:36:31.544Z,25.96
2019-04-22T13:39:00.756Z,26.58
2019-04-22T13:41:39.585Z,26.63
2019-04-22T13:44:00.044Z,27.00
2019-04-22T13:46:31.737Z,26.94
2019-04-22T13:49:34.882Z,26.69
2019-04-22T13:56:49.152Z,28.15
2019-04-22T13:59:10.214Z,28.25
2019-04-22T14:01:30.345Z,27.34
2019-04-22T14:04:00.754Z,28.26
2019-04-22T14:06:31.130Z,28.55
2019-04-22T14:09:01.169Z,27.28
2019-04-22T14:11:37.650Z,27.49
2019-04-22T14:14:00.872Z,28.50
2019-04-22T14:16:31.116Z,28.53
2019-04-22T14:19:00.402Z,28.58
2019-04-22T14:21:30.624Z,28.75
2019-04-22T14:24:00.526Z,27.87
2019-04-22T14:26:44.145Z,28.10
2019-04-22T14:29:01.844Z,29.64
2019-04-22T14:31:30.854Z,27.52
2019-04-22T14:34:04.960Z,28.27
2019-04-22T14:36:30.744Z,27.73
2019-04-22T14:39:01.983Z,28.41
2019-04-22T14:41:43.510Z,28.26
2019-04-22T14:45:05.154Z,28.74
2019-04-22T14:47:02.137Z,27.90
2019-04-22T14:49:24.038Z,27.78
2019-04-22T14:51:55.070Z,28.38
2019-04-22T14:54:13.743Z,28.11
2019-04-22T14:56:30.557Z,26.88
2019-04-22T14:59:00.777Z,27.63
2019-04-22T15:01:30.802Z,26.63
2019-04-22T15:04:00.932Z,26.86
2019-04-22T15:06:31.830Z,26.55
2019-04-22T15:09:01.861Z,26.32
2019-04-22T15:11:43.753Z,25.35
2019-04-22T15:14:01.319Z,26.18
2019-04-22T15:16:31.942Z,26.74
2019-04-22T15:19:00.374Z,26.55
2019-04-22T15:21:30.312Z,26.88
2019-04-22T15:24:00.547Z,28.01
2019-04-22T15:26:30.697Z,28.16
2019-04-22T15:29:00.079Z,28.14
2019-04-22T15:31:31.327Z,28.24
2019-04-22T15:34:00.639Z,27.94
2019-04-22T15:36:30.562Z,28.51
2019-04-22T15:39:00.458Z,29.31
2019-04-22T15:41:30.608Z,30.07
2019-04-22T15:44:01.865Z,29.60
2019-04-22T15:49:09.985Z,29.89
2019-04-22T15:54:19.850Z,29.90
2019-04-22T15:56:50.771Z,30.35
2019-04-22T15:59:41.520Z,30.85
2019-04-22T16:01:50.657Z,31.05
2019-04-22T16:04:20.900Z,31.71
2019-04-22T16:06:52.615Z,32.25
2019-04-22T16:09:21.107Z,32.40
2019-04-22T16:11:51.896Z,32.99
2019-04-22T16:14:27.947Z,33.15
2019-04-22T16:16:52.530Z,33.28
2019-04-22T16:19:21.577Z,33.90
2019-04-22T16:21:56.467Z,33.97
2019-04-22T16:24:22.446Z,34.89
2019-04-22T16:26:52.063Z,35.64
2019-04-22T16:29:23.216Z,35.05
2019-04-22T16:31:51.681Z,35.21
2019-04-22T16:37:01.083Z,36.36
2019-04-22T16:39:32.953Z,36.51
2019-04-22T16:42:02.582Z,37.04
2019-04-22T16:44:32.440Z,37.03
2019-04-22T16:47:03.682Z,36.22
2019-04-22T16:49:33.874Z,36.28
2019-04-22T16:52:03.745Z,36.63
2019-04-22T16:54:32.855Z,36.77
2019-04-22T16:57:03.771Z,36.86
2019-04-22T16:59:32.764Z,37.23
2019-04-22T17:02:02.312Z,35.10
2019-04-22T17:04:32.631Z,35.48
2019-04-22T17:07:03.600Z,36.52
2019-04-22T17:09:32.407Z,36.23
2019-04-22T17:12:03.574Z,36.71
2019-04-22T17:14:35.988Z,36.85
2019-04-22T17:17:02.552Z,36.03
2019-04-22T17:19:33.323Z,34.86
2019-04-22T17:22:03.662Z,34.19
2019-04-22T17:27:12.744Z,34.41
2019-04-22T17:29:42.162Z,34.51
2019-04-22T17:32:15.677Z,34.82
2019-04-22T17:37:26.530Z,35.84
2019-04-22T17:40:13.371Z,36.30
2019-04-22T17:45:31.731Z,36.15
2019-04-22T17:47:45.223Z,36.37
2019-04-22T17:50:28.052Z,36.31
2019-04-22T17:53:02.846Z,36.60
2019-04-22T17:55:21.423Z,36.90
2019-04-22T17:57:49.121Z,37.25
2019-04-22T18:00:23.577Z,37.62
2019-04-22T18:02:45.757Z,37.82
2019-04-22T18:05:05.912Z,38.70
2019-04-22T18:07:54.903Z,39.03
2019-04-22T18:10:33.017Z,39.09
2019-04-22T18:12:59.944Z,39.65
2019-04-22T18:18:09.146Z,40.08
2019-04-22T18:23:00.265Z,40.09
2019-04-22T18:25:36.446Z,40.29
2019-04-22T18:30:36.343Z,40.53
2019-04-22T18:33:13.196Z,40.84
2019-04-22T18:35:40.017Z,40.46
2019-04-22T18:38:19.832Z,40.95
2019-04-22T18:43:26.169Z,41.56
2019-04-22T18:45:54.896Z,41.62
2019-04-22T18:48:08.917Z,41.41
2019-04-22T18:51:00.223Z,41.84
2019-04-22T18:53:23.440Z,41.84
2019-04-22T18:55:44.293Z,42.39
2019-04-22T18:58:14.528Z,42.32
2019-04-22T19:00:34.106Z,42.81
2019-04-22T19:03:11.178Z,42.67
2019-04-22T19:08:31.659Z,43.33
2019-04-22T19:11:08.227Z,43.42
2019-04-22T19:16:19.665Z,43.38
2019-04-22T19:18:35.809Z,43.74
2019-04-22T19:23:41.485Z,43.99
2019-04-22T19:26:15.598Z,44.44
2019-04-22T19:28:55.598Z,44.50
2019-04-22T19:31:13.425Z,44.41
2019-04-22T19:33:44.453Z,44.53
2019-04-22T19:36:18.537Z,44.90
2019-04-22T19:38:28.602Z,44.99
2019-04-22T19:43:46.856Z,45.05
2019-04-22T19:46:08.856Z,45.27
2019-04-22T19:48:46.933Z,45.36
2019-04-22T19:51:15.678Z,45.42
2019-04-22T19:53:47.142Z,45.75
2019-04-22T19:58:45.531Z,45.65
2019-04-22T20:01:16.312Z,45.74
2019-04-22T20:03:55.917Z,46.26
2019-04-22T20:06:20.581Z,46.46
2019-04-22T20:08:54.900Z,46.41
2019-04-22T20:11:26.568Z,46.28
2019-04-22T20:13:49.909Z,46.39
2019-04-22T20:16:08.556Z,46.82
2019-04-22T20:18:52.067Z,46.83
2019-04-22T20:21:26.773Z,46.97
2019-04-22T20:23:41.749Z,47.26
2019-04-22T20:26:16.077Z,46.95
2019-04-22T20:28:55.974Z,46.89
2019-04-22T20:31:24.805Z,47.15
2019-04-22T20:36:53.059Z,47.71
2019-04-22T20:38:58.775Z,47.55
2019-04-22T20:44:15.984Z,47.37
2019-04-22T20:46:40.521Z,46.74
2019-04-22T20:49:12.212Z,47.07
2019-04-22T20:54:12.386Z,46.84
2019-04-22T20:56:40.974Z,46.76
2019-04-22T20:59:15.018Z,47.26
2019-04-22T21:01:41.643Z,48.05
2019-04-22T21:03:57.424Z,47.97
2019-04-22T21:06:42.275Z,47.93
2019-04-22T21:09:12.145Z,48.24
2019-04-22T21:11:38.592Z,48.51
2019-04-22T21:14:05.803Z,48.47
2019-04-22T21:16:43.149Z,48.71
2019-04-22T21:19:22.040Z,48.52
2019-04-22T21:21:44.996Z,48.13
2019-04-22T21:24:03.171Z,48.58
2019-04-22T21:26:39.730Z,48.45
2019-04-22T21:29:07.097Z,48.06
2019-04-22T21:34:22.362Z,48.91
2019-04-22T21:36:57.946Z,48.43
2019-04-22T21:39:19.076Z,48.44
2019-04-22T21:41:53.058Z,48.99
2019-04-22T21:44:18.462Z,49.10
2019-04-22T21:47:00.969Z,49.23
2019-04-22T21:49:25.437Z,49.15
2019-04-22T21:51:55.256Z,48.60
2019-04-22T21:57:15.175Z,49.06
2019-04-22T21:59:30.913Z,49.43
2019-04-22T22:02:08.395Z,49.80
2019-04-22T22:04:32.130Z,50.16
2019-04-22T22:06:51.253Z,50.25
2019-04-22T22:09:31.763Z,50.45
2019-04-22T22:11:59.724Z,50.25
2019-04-22T22:14:28.996Z,50.45
2019-04-22T22:16:51.695Z,50.75
2019-04-22T22:19:28.411Z,50.80
2019-04-22T22:22:05.994Z,50.67
2019-04-22T22:24:34.364Z,50.61
2019-04-22T22:27:01.484Z,50.68
2019-04-22T22:29:48.031Z,50.94
2019-04-22T22:32:05.125Z,50.57
2019-04-22T22:34:31.432Z,50.82
2019-04-22T22:37:00.383Z,51.20
2019-04-22T22:39:23.182Z,50.79
2019-04-22T22:41:41.807Z,50.99
2019-04-22T22:47:08.682Z,51.10
2019-04-22T22:49:39.756Z,51.15
2019-04-22T22:54:38.936Z,51.47
2019-04-22T22:57:25.809Z,51.69
2019-04-22T22:59:48.345Z,51.74
2019-04-22T23:02:07.843Z,51.48
2019-04-22T23:04:45.480Z,51.40
2019-04-22T23:07:17.151Z,51.96
2019-04-22T23:09:47.126Z,51.92
2019-04-22T23:12:28.981Z,52.27
2019-04-22T23:14:44.131Z,52.39
2019-04-22T23:16:59.231Z,52.47
2019-04-22T23:19:21.767Z,52.78
2019-04-22T23:24:44.035Z,52.99
2019-04-22T23:27:15.764Z,53.16
2019-04-22T23:29:43.394Z,52.88
2019-04-22T23:32:14.367Z,53.32
2019-04-22T23:34:50.037Z,53.32
2019-04-22T23:40:01.769Z,52.96
2019-04-22T23:42:31.248Z,52.77
2019-04-22T23:45:03.587Z,53.26
2019-04-22T23:47:21.171Z,53.21
2019-04-22T23:49:57.846Z,53.16
2019-04-22T23:52:28.924Z,53.08
2019-04-22T23:54:58.740Z,53.46
2019-04-22T23:57:30.791Z,53.67
